Aérodrome :
LOGIN :

S'inscrire | Disclaimer

   EN    FR    IT 

 










Légende :    VFR   VFR Marginal   IFR   IFR Intensif   IFR Très Intensif
Visi : 
Plafond : 
>= 8 km
>= 3000ft
5 à 8 km
1000 à 3000 ft
1500m à 5 km
500 à 1000 ft
800 à 1500m
200 à 500 ft
< 800m
< 200 ft
Symboles :   Orages  Brouillard  Fortes neiges  Fortes précipitations  Vent > 20 kt
SIGMETs :   Divers  Orages  Givrage  Turbulence  Onde Orograph.  Cendres Volcan.







- Altitude de l'aérodrome : 231 ft
- Code IATA : WTN


EGXW - RAF Waddington

DERNIER METAR :
  • 152250Z 04005KT 3000 -DZ OVC002 11/11 Q1015 AMB

METARs EXPIRÉS :
  • 152150Z 04003KT 2000 -DZ OVC002 10/10 Q1015 AMB
  • 152050Z 04005KT 2000 -DZ OVC002 10/10 Q1015 AMB
  • 152038Z 03005KT 4000 BR BKN002 10/10 Q1015 AMB

TAF TAF EGXW
Valide du 16 à 00h jusqu'au 16 à 18h UTC


152210Z 1600/1618 07005KT 3000 BR BKN003
PROB40 1600/1610 0300 FG OVC000
BECMG 1610/1612 5000 BKN005
BECMG 1612/1615 9999 NSW BKN010
BECMG 1616/1618 SCT035
Pas de NOTAMs connus pour ce terrain.



MET'MAP, la Météo Aéronautique d'un coup d'oeil ! - Copyright ORBIFLY Décembre 2007 - Disclaimer

ORBIFLY MET'MAP TEAM :

Programmation & Développement : Alexandra Zaïnal
Conception & Développement : Baudouin d'Aumeries
Co-Programmation & Développement : Marc-Olivier Méhu
Soutien technique & logistique : Manuel Goepfert

Contact : metmap@orbifly.com




SOURCES & CREDITS :

   NOAA